Аэропорт: Гомель. Гомель

ICAO: UMGG

METAR:
2018/09/19 07:30
UMGG 190730Z 22003MPS CAVOK 18/13 Q1022 R28/CLRD// NOSIG
METAR:
2018/09/18 18:22
TAF UMGG 181700Z 1818/1918 VRB02MPS 6000 SCT020 
      TEMPO 1820/1906 VRB02MPS 1200 BR BKN004 
      TEMPO 1906/1907 SCT004 
     FM190700 25007MPS 9999 SCT030